Home > Products > Valid Products > TAF

000
FTUS45 KVEF 301731
TAFVGT
TAF
KVGT 301731Z 3018/3118 05007KT P6SM SCT130 BKN200
     FM310100 18007KT P6SM FEW100 SCT130 BKN200
     FM310400 32005KT P6SM SCT100 SCT150 BKN200
     FM311400 VRB05KT P6SM SCT100 SCT150 BKN200=



000
FTUS45 KVEF 301731
TAFLAS
TAF
KLAS 301731Z 3018/3118 01007KT P6SM SCT150 BKN200
     FM302000 06007KT P6SM SCT130 BKN200
     FM302100 13005KT P6SM FEW100 SCT130 BKN200
     FM310200 18009KT P6SM SCT100 SCT150 BKN200
     FM311400 VRB05KT P6SM SCT100 SCT150 BKN200=



000
FTUS45 KVEF 301731
TAFEED
TAF
KEED 301731Z 3018/3118 VRB05KT P6SM BKN150
     FM301900 19011KT P6SM FEW120 SCT150
     FM302300 09011KT P6SM VCTS SCT080CB BKN120 BKN150
      TEMPO 3100/3104 VRB20G35KT 6SM TSRA SCT070CB BKN100
     FM310500 21006KT P6SM SCT100 BKN150
     FM311000 VRB05KT P6SM SCT100 BKN150=



000
FTUS45 KVEF 301731
TAFDAG
TAF
KDAG 301731Z 3018/3118 VRB06KT P6SM VCSH FEW060 SCT100 BKN120
      TEMPO 3018/3022 -SHRA
     FM302200 07010KT P6SM VCTS FEW060 SCT100CB BKN150
      TEMPO 3022/3102 VRB20G35KT 6SM TSRA SCT060CB BKN100
     FM310400 24006KT P6SM SCT100 BKN150=



000
FTUS45 KVEF 301731
TAFBIH
TAF
KBIH 301731Z 3018/3118 20005KT P6SM FEW120 BKN200
     FM302000 17012G20KT P6SM VCSH SCT120 BKN200
     FM310300 15010KT P6SM FEW120 BKN200
     FM310800 32006KT P6SM FEW120 BKN200=



000
FTUS45 KVEF 301731
TAFLAS
TAF
KLAS 301731Z 3018/3118 01007KT P6SM SCT150 BKN200
     FM302000 06007KT P6SM SCT130 BKN200
     FM302100 13005KT P6SM FEW100 SCT130 BKN200
     FM310200 18009KT P6SM SCT100 SCT150 BKN200
     FM311400 VRB05KT P6SM SCT100 SCT150 BKN200=



000
FTUS45 KVEF 301445 AAA
TAFLAS
TAF AMD
KLAS 301445Z 3015/3112 01005KT P6SM SCT150 BKN200
     FM301700 06007KT P6SM SCT130 BKN200
     FM302100 13005KT P6SM FEW100 SCT130 BKN200
     FM310200 18009KT P6SM FEW100 SCT130 BKN200=



000
FTUS45 KVEF 301445 AAA
TAFLAS
TAF AMD
KLAS 301445Z 3015/3112 01005KT P6SM SCT150 BKN200
     FM301700 06007KT P6SM SCT130 BKN200
     FM302100 13005KT P6SM FEW100 SCT130 BKN200
     FM310200 18009KT P6SM FEW100 SCT130 BKN200=



000
FTUS45 KVEF 301120
TAFLAS
TAF
KLAS 301120Z 3012/3112 21005KT P6SM FEW140 OVC170
     FM301400 VRB05KT P6SM SCT150 BKN200
     FM301700 06007KT P6SM SCT130 BKN200
     FM302100 13005KT P6SM FEW100 SCT130 BKN200
     FM310200 18009KT P6SM FEW100 SCT130 BKN200=



000
FTUS45 KVEF 301120
TAFBIH
TAF
KBIH 301120Z 3012/3112 20005KT P6SM SKC
     FM301900 17013G22KT P6SM SCT150
     FM310300 15010KT P6SM SCT150=



000
FTUS45 KVEF 301120
TAFDAG
TAF
KDAG 301120Z 3012/3112 VRB05KT P6SM FEW150 BKN200
     FM301400 VRB06KT P6SM -SHRA FEW080 SCT110 BKN140
     FM302100 07010KT P6SM VCTS SCT100CB BKN200
      TEMPO 3022/3102 VRB15G30KT 6SM TSRA FEW070CB SCT090 BKN110
     FM310400 24006KT P6SM SCT150=



000
FTUS45 KVEF 301120
TAFVGT
TAF
KVGT 301120Z 3012/3112 VRB06KT P6SM FEW140 OVC170
     FM301700 05006KT P6SM SCT130 BKN200
     FM310100 18007KT P6SM FEW100 SCT130 BKN200
     FM310400 32005KT P6SM FEW100 SCT130 BKN200=



000
FTUS45 KVEF 301120
TAFEED
TAF
KEED 301120Z 3012/3112 28004KT P6SM BKN150
     FM301900 19011KT P6SM SCT130 BKN200
     FM302300 23006KT P6SM VCTS FEW080CB SCT100 BKN140
      TEMPO 3100/3104 VRB20G35KT 6SM TSRA FEW060CB SCT080 BKN110
     FM310500 21006KT P6SM FEW100 SCT150=



000
FTUS45 KVEF 301120
TAFLAS
TAF
KLAS 301120Z 3012/3112 21005KT P6SM FEW140 OVC170
     FM301400 VRB05KT P6SM SCT150 BKN200
     FM301700 06007KT P6SM SCT130 BKN200
     FM302100 13005KT P6SM FEW100 SCT130 BKN200
     FM310200 18009KT P6SM FEW100 SCT130 BKN200=



000
FTUS45 KVEF 300845 AAA
TAFLAS
TAF AMD
KLAS 300845Z 3009/3106 20007KT P6SM FEW140 OVC170
     FM301400 VRB05KT P6SM SCT150 BKN200
     FM301700 06007KT P6SM SCT130 BKN200
     FM302100 13005KT P6SM FEW100 SCT130 BKN200
     FM310200 18009KT P6SM FEW100 SCT130 BKN200=



000
FTUS45 KVEF 300845 AAA
TAFLAS
TAF AMD
KLAS 300845Z 3009/3106 20007KT P6SM FEW140 OVC170
     FM301400 VRB05KT P6SM SCT150 BKN200
     FM301700 06007KT P6SM SCT130 BKN200
     FM302100 13005KT P6SM FEW100 SCT130 BKN200
     FM310200 18009KT P6SM FEW100 SCT130 BKN200=



000
FTUS45 KVEF 300845 AAA
TAFLAS
TAF AMD
KLAS 300845Z 3009/3106 20007KT P6SM FEW140 OVC170
     FM301400 VRB05KT P6SM SCT150 BKN200
     FM301700 06007KT P6SM SCT130 BKN200
     FM302100 13005KT P6SM FEW100 SCT130 BKN200
     FM310200 18009KT P6SM FEW100 SCT130 BKN200=



000
FTUS45 KVEF 300520
TAFDAG
TAF
KDAG 300520Z 3006/3106 26005KT P6SM VCSH BKN140
     FM302100 07010KT P6SM VCTS SCT100CB BKN200
      TEMPO 3022/3102 VRB15G30KT 6SM TSRA FEW070CB SCT090 BKN110
     FM310400 24006KT P6SM SCT150=



000
FTUS45 KVEF 300520
TAFLAS
TAF
KLAS 300520Z 3006/3106 18011KT P6SM FEW140 BKN180 BKN240
     FM301400 VRB05KT P6SM SCT150 BKN200
     FM301700 06007KT P6SM SCT130 BKN200
     FM302100 13005KT P6SM FEW100 SCT130 BKN200
     FM310200 18009KT P6SM FEW100 SCT130 BKN200=



000
FTUS45 KVEF 300520
TAFVGT
TAF
KVGT 300520Z 3006/3106 14004KT P6SM FEW140 BKN180 BKN240
     FM301700 05006KT P6SM SCT130 BKN200
     FM310100 18007KT P6SM FEW100 SCT130 BKN200=



000
FTUS45 KVEF 300520
TAFEED
TAF
KEED 300520Z 3006/3106 24010KT P6SM -SHRA SCT110 BKN140
     FM300800 VRB05KT P6SM SCT150 BKN200
     FM301900 19011KT P6SM SCT130 BKN200
     FM302300 23006KT P6SM VCTS FEW080CB SCT100 BKN140
      TEMPO 3100/3104 VRB20G35KT 6SM TSRA FEW060CB SCT080 BKN110=



000
FTUS45 KVEF 300520
TAFLAS
TAF
KLAS 300520Z 3006/3106 18011KT P6SM FEW140 BKN180 BKN240
     FM301400 VRB05KT P6SM SCT150 BKN200
     FM301700 06007KT P6SM SCT130 BKN200
     FM302100 13005KT P6SM FEW100 SCT130 BKN200
     FM310200 18009KT P6SM FEW100 SCT130 BKN200=



000
FTUS45 KVEF 300520
TAFBIH
TAF
KBIH 300520Z 3006/3106 15009KT P6SM SKC
     FM300800 32005KT P6SM SCT150
     FM301900 17013G22KT P6SM SCT150
     FM310300 15010KT P6SM SCT150=



000
FTUS45 KVEF 300520
TAFLAS
TAF
KLAS 300520Z 3006/3106 18011KT P6SM FEW140 BKN180 BKN240
     FM301400 VRB05KT P6SM SCT150 BKN200
     FM301700 06007KT P6SM SCT130 BKN200
     FM302100 13005KT P6SM FEW100 SCT130 BKN200
     FM310200 18009KT P6SM FEW100 SCT130 BKN200=



000
FTUS45 KVEF 300520
TAFBIH
TAF
KBIH 300520Z 3006/3106 15009KT P6SM SKC
     FM300800 32005KT P6SM SCT150
     FM301900 17013G22KT P6SM SCT150
     FM310300 15010KT P6SM SCT150=



000
FTUS45 KVEF 300520
TAFLAS
TAF
KLAS 300520Z 3006/3106 18011KT P6SM FEW140 BKN180 BKN240
     FM301400 VRB05KT P6SM SCT150 BKN200
     FM301700 06007KT P6SM SCT130 BKN200
     FM302100 13005KT P6SM FEW100 SCT130 BKN200
     FM310200 18009KT P6SM FEW100 SCT130 BKN200=



000
FTUS45 KVEF 300520
TAFDAG
TAF
KDAG 300520Z 3006/3106 26005KT P6SM VCSH BKN140
     FM302100 07010KT P6SM VCTS SCT100CB BKN200
      TEMPO 3022/3102 VRB15G30KT 6SM TSRA FEW070CB SCT090 BKN110
     FM310400 24006KT P6SM SCT150=



000
FTUS45 KVEF 300520
TAFVGT
TAF
KVGT 300520Z 3006/3106 14004KT P6SM FEW140 BKN180 BKN240
     FM301700 05006KT P6SM SCT130 BKN200
     FM310100 18007KT P6SM FEW100 SCT130 BKN200=



000
FTUS45 KVEF 300520
TAFEED
TAF
KEED 300520Z 3006/3106 24010KT P6SM -SHRA SCT110 BKN140
     FM300800 VRB05KT P6SM SCT150 BKN200
     FM301900 19011KT P6SM SCT130 BKN200
     FM302300 23006KT P6SM VCTS FEW080CB SCT100 BKN140
      TEMPO 3100/3104 VRB20G35KT 6SM TSRA FEW060CB SCT080 BKN110=



000
FTUS45 KVEF 300246 AAA
TAFLAS
TAF AMD
KLAS 300246Z 3003/3024 21010KT P6SM SCT140 BKN200
     FM301400 VRB05KT P6SM SCT150 BKN200
     FM301700 06007KT P6SM SCT130 BKN200=



000
FTUS45 KVEF 300246 AAA
TAFLAS
TAF AMD
KLAS 300246Z 3003/3024 21010KT P6SM SCT140 BKN200
     FM301400 VRB05KT P6SM SCT150 BKN200
     FM301700 06007KT P6SM SCT130 BKN200=



000
FTUS45 KVEF 300159 AAB
TAFDAG
TAF AMD
KDAG 300159Z 3002/3024 05011G19KT P6SM VCTS FEW090CB OVC110
     FM300300 10007KT P6SM VCSH BKN110
     FM300500 24005KT P6SM VCSH SCT100 BKN150
     FM302100 07010KT P6SM VCTS SCT100CB BKN200=



000
FTUS45 KVEF 300039 AAA
TAFDAG
TAF AMD
KDAG 300039Z 3001/3024 28009KT P6SM VCTS SCT120CB BKN200
      TEMPO 3001/3002 VRB20G30KT -TSRA BKN100CB
     FM300200 03008KT P6SM VCSH SCT100 BKN150
     FM300500 24005KT P6SM VCSH SCT100 BKN150
     FM302100 07010KT P6SM VCTS SCT100CB BKN200=



000
FTUS45 KVEF 292320
TAFEED
TAF
KEED 292320Z 3000/3024 21010KT P6SM VCSH SCT120 BKN200
     FM300300 28010KT P6SM VCSH SCT120 BKN200
     FM300800 VRB05KT P6SM SCT150 BKN200
     FM301900 19011KT P6SM SCT130 BKN200=



000
FTUS45 KVEF 292320
TAFLAS
TAF
KLAS 292320Z 3000/3024 21013G23KT P6SM SCT130 BKN200
     FM300200 20010KT P6SM SCT130 BKN200
     FM301400 VRB05KT P6SM SCT150 BKN200
     FM301700 06007KT P6SM SCT130 BKN200=



000
FTUS45 KVEF 292320
TAFBIH
TAF
KBIH 292320Z 3000/3024 17010G18KT P6SM SKC
     FM300200 15010KT P6SM SKC
     FM300800 32005KT P6SM SCT150
     FM301900 17013G22KT P6SM SCT150=



000
FTUS45 KVEF 292320
TAFLAS
TAF
KLAS 292320Z 3000/3024 21013G23KT P6SM SCT130 BKN200
     FM300200 20010KT P6SM SCT130 BKN200
     FM301400 VRB05KT P6SM SCT150 BKN200
     FM301700 06007KT P6SM SCT130 BKN200=



000
FTUS45 KVEF 292320
TAFDAG
TAF
KDAG 292320Z 3000/3024 08012G20KT P6SM VCTS SCT120CB BKN200
      TEMPO 3000/3002 VRB20G30KT -TSRA BKN100CB
     FM300200 15007KT P6SM VCSH SCT100 BKN150
     FM300500 24005KT P6SM VCSH SCT100 BKN150
     FM302100 07010KT P6SM VCTS SCT100CB BKN200=



000
FTUS45 KVEF 292320
TAFVGT
TAF
KVGT 292320Z 3000/3024 18010KT P6SM SCT130 SCT200
     FM300200 21011G21KT P6SM SCT130 BKN200
     FM300600 34005KT P6SM SCT150 BKN200
     FM301700 05006KT P6SM SCT130 BKN200=



000
FTUS45 KVEF 292254 AAB
TAFLAS
TAF AMD
KLAS 292254Z 2923/3018 08007KT P6SM SCT130 BKN200
     FM292330 21013G23KT P6SM SCT130 BKN200
     FM300200 20008KT P6SM SCT130 BKN200
     FM301400 VRB05KT P6SM SCT150 BKN200=



000
FTUS45 KVEF 292254 AAB
TAFLAS
TAF AMD
KLAS 292254Z 2923/3018 08007KT P6SM SCT130 BKN200
     FM292330 21013G23KT P6SM SCT130 BKN200
     FM300200 20008KT P6SM SCT130 BKN200
     FM301400 VRB05KT P6SM SCT150 BKN200=



000
FTUS45 KVEF 292054 AAA
TAFLAS
TAF AMD
KLAS 292054Z 2921/3018 08007KT P6SM SCT130 SCT200
     FM292300 12008KT P6SM SCT130 BKN200
     FM300200 20008KT P6SM SCT130 BKN200
     FM301400 VRB05KT P6SM SCT150 BKN200=



000
FTUS45 KVEF 292054 AAA
TAFLAS
TAF AMD
KLAS 292054Z 2921/3018 08007KT P6SM SCT130 SCT200
     FM292300 12008KT P6SM SCT130 BKN200
     FM300200 20008KT P6SM SCT130 BKN200
     FM301400 VRB05KT P6SM SCT150 BKN200=



000
FTUS45 KVEF 292054 AAA
TAFLAS
TAF AMD
KLAS 292054Z 2921/3018 08007KT P6SM SCT130 SCT200
     FM292300 12008KT P6SM SCT130 BKN200
     FM300200 20008KT P6SM SCT130 BKN200
     FM301400 VRB05KT P6SM SCT150 BKN200=



000
FTUS45 KVEF 292013 AAA
TAFDAG
TAF AMD
KDAG 292013Z 2920/3018 08012G20KT P6SM VCTS SCT130CB BKN200
     FM292200 08012G20KT P6SM VCTS SCT120CB BKN200
      TEMPO 2922/3002 VRB20G30KT
     FM300200 15007KT P6SM VCSH SCT100 BKN150
     FM300500 24005KT P6SM SCT100 BKN150=



000
FTUS45 KVEF 291726
TAFLAS
TAF
KLAS 291726Z 2918/3018 06007KT P6SM SCT130 SCT200
     FM291900 12008KT P6SM SCT130 SCT200
     FM300100 20008KT P6SM SCT150 BKN200
     FM301400 VRB05KT P6SM SCT150 BKN200=



000
FTUS45 KVEF 291726
TAFDAG
TAF
KDAG 291726Z 2918/3018 31008KT P6SM SCT130
     FM291900 08010KT P6SM VCSH SCT130
     FM292200 08012G20KT P6SM VCTS SCT120CB BKN200
      TEMPO 2922/3002 VRB20G30KT
     FM300200 15007KT P6SM VCSH SCT100 BKN150
     FM300500 24005KT P6SM SCT100 BKN150=



000
FTUS45 KVEF 291726
TAFVGT
TAF
KVGT 291726Z 2918/3018 13007KT P6SM SCT130 SCT200
     FM300200 19008KT P6SM SCT130 BKN200
     FM300600 34005KT P6SM SCT130 BKN200=



000
FTUS45 KVEF 291726
TAFBIH
TAF
KBIH 291726Z 2918/3018 VRB05KT P6SM SKC
     FM292000 17010G18KT P6SM SKC
     FM300200 15010KT P6SM SKC
     FM300800 26005KT P6SM SCT150=



000
FTUS45 KVEF 291726
TAFLAS
TAF
KLAS 291726Z 2918/3018 06007KT P6SM SCT130 SCT200
     FM291900 12008KT P6SM SCT130 SCT200
     FM300100 20008KT P6SM SCT150 BKN200
     FM301400 VRB05KT P6SM SCT150 BKN200=



000
FTUS45 KVEF 291726
TAFEED
TAF
KEED 291726Z 2918/3018 16008KT P6SM SCT150 SCT200
     FM292200 21008KT P6SM VCTS SCT120CB
      TEMPO 2922/3002 VRB20G30KT
     FM300300 23010KT P6SM SCT120 BKN200
     FM301100 VRB05KT P6SM SCT150 BKN200=



000
FTUS45 KVEF 291726
TAFBIH
TAF
KBIH 291726Z 2918/3018 VRB05KT P6SM SKC
     FM292000 17010G18KT P6SM SKC
     FM300200 15010KT P6SM SKC
     FM300800 26005KT P6SM SCT150=



000
FTUS45 KVEF 291726
TAFVGT
TAF
KVGT 291726Z 2918/3018 13007KT P6SM SCT130 SCT200
     FM300200 19008KT P6SM SCT130 BKN200
     FM300600 34005KT P6SM SCT130 BKN200=



000
FTUS45 KVEF 291726
TAFLAS
TAF
KLAS 291726Z 2918/3018 06007KT P6SM SCT130 SCT200
     FM291900 12008KT P6SM SCT130 SCT200
     FM300100 20008KT P6SM SCT150 BKN200
     FM301400 VRB05KT P6SM SCT150 BKN200=



000
FTUS45 KVEF 291726
TAFDAG
TAF
KDAG 291726Z 2918/3018 31008KT P6SM SCT130
     FM291900 08010KT P6SM VCSH SCT130
     FM292200 08012G20KT P6SM VCTS SCT120CB BKN200
      TEMPO 2922/3002 VRB20G30KT
     FM300200 15007KT P6SM VCSH SCT100 BKN150
     FM300500 24005KT P6SM SCT100 BKN150=



000
FTUS45 KVEF 291726
TAFEED
TAF
KEED 291726Z 2918/3018 16008KT P6SM SCT150 SCT200
     FM292200 21008KT P6SM VCTS SCT120CB
      TEMPO 2922/3002 VRB20G30KT
     FM300300 23010KT P6SM SCT120 BKN200
     FM301100 VRB05KT P6SM SCT150 BKN200=



000
FTUS45 KVEF 291449 AAA
TAFLAS
TAF AMD
KLAS 291449Z 2915/3012 06007KT P6SM SCT130
     FM291900 12008KT P6SM SCT130 SCT200
     FM300300 21007KT P6SM FEW130 BKN200=



000
FTUS45 KVEF 291449 AAA
TAFLAS
TAF AMD
KLAS 291449Z 2915/3012 06007KT P6SM SCT130
     FM291900 12008KT P6SM SCT130 SCT200
     FM300300 21007KT P6SM FEW130 BKN200=



000
FTUS45 KVEF 291449 AAA
TAFLAS
TAF AMD
KLAS 291449Z 2915/3012 06007KT P6SM SCT130
     FM291900 12008KT P6SM SCT130 SCT200
     FM300300 21007KT P6SM FEW130 BKN200=



000
FTUS45 KVEF 291449 AAA
TAFLAS
TAF AMD
KLAS 291449Z 2915/3012 06007KT P6SM SCT130
     FM291900 12008KT P6SM SCT130 SCT200
     FM300300 21007KT P6SM FEW130 BKN200=



000
FTUS45 KVEF 291120
TAFLAS
TAF
KLAS 291120Z 2912/3012 22007KT P6SM FEW250
     FM291500 08005KT P6SM FEW150
     FM291900 12008KT P6SM FEW130 SCT180
     FM300300 21007KT P6SM FEW130 SCT180=



000
FTUS45 KVEF 291120
TAFDAG
TAF
KDAG 291120Z 2912/3012 25010KT P6SM SKC
     FM291600 31008KT P6SM FEW150
     FM291900 08010KT P6SM SCT130
     FM292200 08012G20KT P6SM VCTS SCT120CB
     FM300200 15007KT P6SM VCSH SCT100 BKN150
     FM300400 24005KT P6SM FEW100 SCT150=



000
FTUS45 KVEF 291120
TAFBIH
TAF
KBIH 291120Z 2912/3012 29006KT P6SM SKC
     FM292000 17010G18KT P6SM SKC
     FM300200 15010KT P6SM SKC
     FM300800 26005KT P6SM SKC=



000
FTUS45 KVEF 291120
TAFLAS
TAF
KLAS 291120Z 2912/3012 22007KT P6SM FEW250
     FM291500 08005KT P6SM FEW150
     FM291900 12008KT P6SM FEW130 SCT180
     FM300300 21007KT P6SM FEW130 SCT180=



000
FTUS45 KVEF 291120
TAFVGT
TAF
KVGT 291120Z 2912/3012 33004KT P6SM FEW250
     FM291500 VRB05KT P6SM FEW150
     FM291900 13007KT P6SM SCT130 SCT180
     FM300400 34005KT P6SM FEW130 SCT180=



000
FTUS45 KVEF 291120
TAFLAS
TAF
KLAS 291120Z 2912/3012 22007KT P6SM FEW250
     FM291500 08005KT P6SM FEW150
     FM291900 12008KT P6SM FEW130 SCT180
     FM300300 21007KT P6SM FEW130 SCT180=



000
FTUS45 KVEF 291120
TAFEED
TAF
KEED 291120Z 2912/3012 19005KT P6SM SKC
     FM291600 16008KT P6SM SCT150
     FM292200 21008KT P6SM VCTS SCT120CB
     FM300300 21010KT P6SM SCT120=



000
FTUS45 KVEF 291120
TAFDAG
TAF
KDAG 291120Z 2912/3012 25010KT P6SM SKC
     FM291600 31008KT P6SM FEW150
     FM291900 08010KT P6SM SCT130
     FM292200 08012G20KT P6SM VCTS SCT120CB
     FM300200 15007KT P6SM VCSH SCT100 BKN150
     FM300400 24005KT P6SM FEW100 SCT150=



000
FTUS45 KVEF 291120
TAFBIH
TAF
KBIH 291120Z 2912/3012 29006KT P6SM SKC
     FM292000 17010G18KT P6SM SKC
     FM300200 15010KT P6SM SKC
     FM300800 26005KT P6SM SKC=



000
FTUS45 KVEF 291120
TAFEED
TAF
KEED 291120Z 2912/3012 19005KT P6SM SKC
     FM291600 16008KT P6SM SCT150
     FM292200 21008KT P6SM VCTS SCT120CB
     FM300300 21010KT P6SM SCT120=



000
FTUS45 KVEF 291120
TAFVGT
TAF
KVGT 291120Z 2912/3012 33004KT P6SM FEW250
     FM291500 VRB05KT P6SM FEW150
     FM291900 13007KT P6SM SCT130 SCT180
     FM300400 34005KT P6SM FEW130 SCT180=



000
FTUS45 KVEF 290845 AAA
TAFLAS
TAF AMD
KLAS 290845Z 2909/3006 22005KT P6SM FEW250
     FM291500 08005KT P6SM FEW150
     FM291900 12008KT P6SM SCT130=



000
FTUS45 KVEF 290520
TAFEED
TAF
KEED 290520Z 2906/3006 24008KT P6SM SKC
     FM290700 VRB05KT P6SM SCT150
     FM291600 16008KT P6SM SCT150
     FM292200 21008KT P6SM VCTS SCT120CB
     FM300300 21010KT P6SM SCT120=



000
FTUS45 KVEF 290520
TAFLAS
TAF
KLAS 290520Z 2906/3006 VRB05KT P6SM SKC
     FM290700 21007KT P6SM SKC
     FM291500 08005KT P6SM FEW150
     FM291900 12008KT P6SM SCT130=



000
FTUS45 KVEF 290520
TAFBIH
TAF
KBIH 290520Z 2906/3006 18007KT P6SM SKC
     FM292000 17010G18KT P6SM SKC
     FM300200 15010KT P6SM SKC=



000
FTUS45 KVEF 290520
TAFDAG
TAF
KDAG 290520Z 2906/3006 31007KT P6SM SKC
     FM291600 31008KT P6SM FEW150
     FM291900 08010KT P6SM SCT130
     FM292200 08012G20KT P6SM VCTS SCT120CB
     FM300200 15007KT P6SM VCSH SCT100 BKN150
     FM300400 24005KT P6SM FEW100 SCT150=



000
FTUS45 KVEF 290520
TAFLAS
TAF
KLAS 290520Z 2906/3006 VRB05KT P6SM SKC
     FM290700 21007KT P6SM SKC
     FM291500 08005KT P6SM FEW150
     FM291900 12008KT P6SM SCT130=



000
FTUS45 KVEF 290520
TAFVGT
TAF
KVGT 290520Z 2906/3006 27004KT P6SM SKC
     FM290700 35004KT P6SM SKC
     FM291500 VRB05KT P6SM FEW150
     FM291900 13007KT P6SM SCT130=



000
FTUS45 KVEF 290252 AAA
TAFLAS
TAF AMD
KLAS 290252Z 2903/2924 07009KT P6SM SKC
     FM290500 21007KT P6SM SKC
     FM291500 VRB05KT P6SM FEW150
     FM291900 12008KT P6SM SCT130=



000
FTUS45 KVEF 290252 AAA
TAFLAS
TAF AMD
KLAS 290252Z 2903/2924 07009KT P6SM SKC
     FM290500 21007KT P6SM SKC
     FM291500 VRB05KT P6SM FEW150
     FM291900 12008KT P6SM SCT130=



000
FTUS45 KVEF 282320
TAFEED
TAF
KEED 282320Z 2900/2924 18009KT P6SM SKC
     FM290300 24007KT P6SM SKC
     FM290700 VRB05KT P6SM SCT150
     FM291600 16008KT P6SM SCT150
     FM292200 21008KT P6SM VCTS SCT120CB=



000
FTUS45 KVEF 282320
TAFLAS
TAF
KLAS 282320Z 2900/2924 12007KT P6SM SKC
     FM290200 VRB05KT P6SM SKC
     FM290500 21007KT P6SM SKC
     FM291500 VRB05KT P6SM FEW150
     FM291900 12008KT P6SM SCT130=



000
FTUS45 KVEF 282320
TAFVGT
TAF
KVGT 282320Z 2900/2924 13007KT P6SM SKC
     FM290300 VRB05KT P6SM SKC
     FM291500 VRB05KT P6SM FEW150
     FM291900 13007KT P6SM SCT130=



000
FTUS45 KVEF 282320
TAFDAG
TAF
KDAG 282320Z 2900/2924 06007KT P6SM SKC
     FM290400 26008KT P6SM SKC
     FM291600 31008KT P6SM FEW150
     FM291900 08010KT P6SM SCT130
     FM292200 08012G20KT P6SM VCTS SCT120CB=



000
FTUS45 KVEF 282320
TAFLAS
TAF
KLAS 282320Z 2900/2924 12007KT P6SM SKC
     FM290200 VRB05KT P6SM SKC
     FM290500 21007KT P6SM SKC
     FM291500 VRB05KT P6SM FEW150
     FM291900 12008KT P6SM SCT130=



000
FTUS45 KVEF 282320
TAFBIH
TAF
KBIH 282320Z 2900/2924 17010KT P6SM SKC
     FM290600 32007KT P6SM SKC
     FM292000 17010G18KT P6SM SKC=



000
FTUS45 KVEF 282320
TAFLAS
TAF
KLAS 282320Z 2900/2924 12007KT P6SM SKC
     FM290200 VRB05KT P6SM SKC
     FM290500 21007KT P6SM SKC
     FM291500 VRB05KT P6SM FEW150
     FM291900 12008KT P6SM SCT130=



000
FTUS45 KVEF 282320
TAFDAG
TAF
KDAG 282320Z 2900/2924 06007KT P6SM SKC
     FM290400 26008KT P6SM SKC
     FM291600 31008KT P6SM FEW150
     FM291900 08010KT P6SM SCT130
     FM292200 08012G20KT P6SM VCTS SCT120CB=



000
FTUS45 KVEF 282320
TAFLAS
TAF
KLAS 282320Z 2900/2924 12007KT P6SM SKC
     FM290200 VRB05KT P6SM SKC
     FM290500 21007KT P6SM SKC
     FM291500 VRB05KT P6SM FEW150
     FM291900 12008KT P6SM SCT130=



000
FTUS45 KVEF 282320
TAFEED
TAF
KEED 282320Z 2900/2924 18009KT P6SM SKC
     FM290300 24007KT P6SM SKC
     FM290700 VRB05KT P6SM SCT150
     FM291600 16008KT P6SM SCT150
     FM292200 21008KT P6SM VCTS SCT120CB=



000
FTUS45 KVEF 282320
TAFBIH
TAF
KBIH 282320Z 2900/2924 17010KT P6SM SKC
     FM290600 32007KT P6SM SKC
     FM292000 17010G18KT P6SM SKC=



000
FTUS45 KVEF 282320
TAFVGT
TAF
KVGT 282320Z 2900/2924 13007KT P6SM SKC
     FM290300 VRB05KT P6SM SKC
     FM291500 VRB05KT P6SM FEW150
     FM291900 13007KT P6SM SCT130=



000
FTUS45 KVEF 282058 AAA
TAFLAS
TAF AMD
KLAS 282058Z 2821/2918 08007KT P6SM SKC
     FM290200 VRB05KT P6SM SKC
     FM290500 21007KT P6SM SKC
     FM291500 VRB05KT P6SM FEW150=



000
FTUS45 KVEF 282058 AAA
TAFLAS
TAF AMD
KLAS 282058Z 2821/2918 08007KT P6SM SKC
     FM290200 VRB05KT P6SM SKC
     FM290500 21007KT P6SM SKC
     FM291500 VRB05KT P6SM FEW150=



000
FTUS45 KVEF 282058 AAA
TAFLAS
TAF AMD
KLAS 282058Z 2821/2918 08007KT P6SM SKC
     FM290200 VRB05KT P6SM SKC
     FM290500 21007KT P6SM SKC
     FM291500 VRB05KT P6SM FEW150=



000
FTUS45 KVEF 281720
TAFLAS
TAF
KLAS 281720Z 2818/2918 04009KT P6SM SKC
     FM282100 08007KT P6SM SKC
     FM290200 VRB05KT P6SM SKC
     FM290500 21007KT P6SM SKC
     FM291500 VRB05KT P6SM FEW150=



000
FTUS45 KVEF 281720
TAFBIH
TAF
KBIH 281720Z 2818/2918 VRB05KT P6SM SKC
     FM282000 17010KT P6SM SKC
     FM290600 32007KT P6SM SKC=



000
FTUS45 KVEF 281720
TAFEED
TAF
KEED 281720Z 2818/2918 VRB05KT P6SM SKC
     FM282000 18009KT P6SM SKC
     FM290300 21006KT P6SM SKC
     FM290700 VRB05KT P6SM SCT150=



000
FTUS45 KVEF 281720
TAFDAG
TAF
KDAG 281720Z 2818/2918 31008KT P6SM SKC
     FM282000 06007KT P6SM SKC
     FM290400 26007KT P6SM SKC
     FM291600 VRB05KT P6SM FEW150=



000
FTUS45 KVEF 281720
TAFVGT
TAF
KVGT 281720Z 2818/2918 06007KT P6SM SKC
     FM282100 13007KT P6SM SKC
     FM290300 VRB05KT P6SM SKC
     FM291500 VRB05KT P6SM FEW150=



000
FTUS45 KVEF 281720
TAFLAS
TAF
KLAS 281720Z 2818/2918 04009KT P6SM SKC
     FM282100 08007KT P6SM SKC
     FM290200 VRB05KT P6SM SKC
     FM290500 21007KT P6SM SKC
     FM291500 VRB05KT P6SM FEW150=



000
FTUS45 KVEF 281443 AAA
TAFLAS
TAF AMD
KLAS 281443Z 2815/2912 VRB05KT P6SM SKC
     FM281900 07007KT P6SM SKC
     FM282100 14007KT P6SM SKC
     FM290200 19008KT P6SM SKC=



000
FTUS45 KVEF 281443 AAA
TAFLAS
TAF AMD
KLAS 281443Z 2815/2912 VRB05KT P6SM SKC
     FM281900 07007KT P6SM SKC
     FM282100 14007KT P6SM SKC
     FM290200 19008KT P6SM SKC=



000
FTUS45 KVEF 281443 AAA
TAFLAS
TAF AMD
KLAS 281443Z 2815/2912 VRB05KT P6SM SKC
     FM281900 07007KT P6SM SKC
     FM282100 14007KT P6SM SKC
     FM290200 19008KT P6SM SKC=



000
FTUS45 KVEF 281443 AAA
TAFLAS
TAF AMD
KLAS 281443Z 2815/2912 VRB05KT P6SM SKC
     FM281900 07007KT P6SM SKC
     FM282100 14007KT P6SM SKC
     FM290200 19008KT P6SM SKC=



000
FTUS45 KVEF 281120
TAFDAG
TAF
KDAG 281120Z 2812/2912 28010KT P6SM SKC
     FM282000 06007KT P6SM SKC
     FM290200 26007KT P6SM SKC=



000
FTUS45 KVEF 281120
TAFLAS
TAF
KLAS 281120Z 2812/2912 20006KT P6SM SKC
     FM281500 VRB05KT P6SM SKC
     FM281900 07007KT P6SM SKC
     FM282100 14007KT P6SM SKC
     FM290200 19008KT P6SM SKC=



000
FTUS45 KVEF 281120
TAFLAS
TAF
KLAS 281120Z 2812/2912 20006KT P6SM SKC
     FM281500 VRB05KT P6SM SKC
     FM281900 07007KT P6SM SKC
     FM282100 14007KT P6SM SKC
     FM290200 19008KT P6SM SKC=



000
FTUS45 KVEF 281120
TAFBIH
TAF
KBIH 281120Z 2812/2912 33007KT P6SM SKC
     FM281900 17010KT P6SM SKC
     FM290100 VRB04KT P6SM SKC
     FM290400 32007KT P6SM SKC=



000
FTUS45 KVEF 281120
TAFEED
TAF
KEED 281120Z 2812/2912 VRB05KT P6SM SKC
     FM282000 18009KT P6SM SKC
     FM290300 21006KT P6SM SKC
     FM290700 VRB05KT P6SM SKC=



000
FTUS45 KVEF 281120
TAFVGT
TAF
KVGT 281120Z 2812/2912 32006KT P6SM SKC
     FM281800 07007KT P6SM SKC
     FM282100 13007KT P6SM SKC
     FM290300 VRB05KT P6SM SKC=



000
FTUS45 KVEF 280849 AAA
TAFLAS
TAF AMD
KLAS 280849Z 2809/2906 20007KT P6SM SKC
     FM281500 VRB05KT P6SM SKC
     FM281900 07007KT P6SM SKC
     FM282100 14007KT P6SM SKC
     FM290200 19008KT P6SM SKC=



000
FTUS45 KVEF 280849 AAA
TAFLAS
TAF AMD
KLAS 280849Z 2809/2906 20007KT P6SM SKC
     FM281500 VRB05KT P6SM SKC
     FM281900 07007KT P6SM SKC
     FM282100 14007KT P6SM SKC
     FM290200 19008KT P6SM SKC=



000
FTUS45 KVEF 280849 AAA
TAFLAS
TAF AMD
KLAS 280849Z 2809/2906 20007KT P6SM SKC
     FM281500 VRB05KT P6SM SKC
     FM281900 07007KT P6SM SKC
     FM282100 14007KT P6SM SKC
     FM290200 19008KT P6SM SKC=



000
FTUS45 KVEF 280523
TAFLAS
TAF
KLAS 280523Z 2806/2906 20009KT P6SM SKC
     FM281500 VRB05KT P6SM SKC
     FM281900 07007KT P6SM SKC
     FM282100 14007KT P6SM SKC
     FM290200 19008KT P6SM SKC=



000
FTUS45 KVEF 280523
TAFEED
TAF
KEED 280523Z 2806/2906 24007KT P6SM SKC
     FM281000 VRB05KT P6SM SKC
     FM282000 18009KT P6SM SKC
     FM290300 21006KT P6SM SKC=



000
FTUS45 KVEF 280523
TAFBIH
TAF
KBIH 280523Z 2806/2906 33007KT P6SM SKC
     FM281900 17010KT P6SM SKC
     FM290100 VRB04KT P6SM SKC
     FM290400 32007KT P6SM SKC=



000
FTUS45 KVEF 280523
TAFVGT
TAF
KVGT 280523Z 2806/2906 32006KT P6SM SKC
     FM281800 07007KT P6SM SKC
     FM282100 13007KT P6SM SKC
     FM290300 VRB05KT P6SM SKC=



000
FTUS45 KVEF 280523
TAFDAG
TAF
KDAG 280523Z 2806/2906 26010KT P6SM SKC
     FM282000 06007KT P6SM SKC
     FM290200 26007KT P6SM SKC=



000
FTUS45 KVEF 280523
TAFLAS
TAF
KLAS 280523Z 2806/2906 20009KT P6SM SKC
     FM281500 VRB05KT P6SM SKC
     FM281900 07007KT P6SM SKC
     FM282100 14007KT P6SM SKC
     FM290200 19008KT P6SM SKC=



000
FTUS45 KVEF 280523
TAFLAS
TAF
KLAS 280523Z 2806/2906 20009KT P6SM SKC
     FM281500 VRB05KT P6SM SKC
     FM281900 07007KT P6SM SKC
     FM282100 14007KT P6SM SKC
     FM290200 19008KT P6SM SKC=



000
FTUS45 KVEF 280245 AAA
TAFLAS
TAF AMD
KLAS 280245Z 2803/2824 20009KT P6SM SKC
     FM281500 VRB05KT P6SM SKC
     FM281900 08007KT P6SM SKC=



000
FTUS45 KVEF 280245 AAA
TAFLAS
TAF AMD
KLAS 280245Z 2803/2824 20009KT P6SM SKC
     FM281500 VRB05KT P6SM SKC
     FM281900 08007KT P6SM SKC=



000
FTUS45 KVEF 280245 AAA
TAFLAS
TAF AMD
KLAS 280245Z 2803/2824 20009KT P6SM SKC
     FM281500 VRB05KT P6SM SKC
     FM281900 08007KT P6SM SKC=



000
FTUS45 KVEF 280245 AAA
TAFLAS
TAF AMD
KLAS 280245Z 2803/2824 20009KT P6SM SKC
     FM281500 VRB05KT P6SM SKC
     FM281900 08007KT P6SM SKC=



000
FTUS45 KVEF 272320
TAFDAG
TAF
KDAG 272320Z 2800/2824 25010KT P6SM SKC
     FM282000 06007KT P6SM SKC=



000
FTUS45 KVEF 272320
TAFBIH
TAF
KBIH 272320Z 2800/2824 30009KT P6SM SKC
     FM280400 33007KT P6SM SKC
     FM281900 17010KT P6SM SKC=



000
FTUS45 KVEF 272320
TAFLAS
TAF
KLAS 272320Z 2800/2824 16009KT P6SM SKC
     FM280200 20009KT P6SM SKC
     FM281500 VRB05KT P6SM SKC
     FM281900 08007KT P6SM SKC=



000
FTUS45 KVEF 272320
TAFVGT
TAF
KVGT 272320Z 2800/2824 20007KT P6SM SKC
     FM280600 32006KT P6SM SKC
     FM281800 07007KT P6SM SKC=



000
FTUS45 KVEF 272320
TAFLAS
TAF
KLAS 272320Z 2800/2824 16009KT P6SM SKC
     FM280200 20009KT P6SM SKC
     FM281500 VRB05KT P6SM SKC
     FM281900 08007KT P6SM SKC=



000
FTUS45 KVEF 272320
TAFEED
TAF
KEED 272320Z 2800/2824 20012KT P6SM SKC
     FM280300 24007KT P6SM SKC
     FM281000 VRB05KT P6SM SKC
     FM282000 18009KT P6SM SKC=



000
FTUS45 KVEF 272320
TAFLAS
TAF
KLAS 272320Z 2800/2824 16009KT P6SM SKC
     FM280200 20009KT P6SM SKC
     FM281500 VRB05KT P6SM SKC
     FM281900 08007KT P6SM SKC=



000
FTUS45 KVEF 272320
TAFLAS
TAF
KLAS 272320Z 2800/2824 16009KT P6SM SKC
     FM280200 20009KT P6SM SKC
     FM281500 VRB05KT P6SM SKC
     FM281900 08007KT P6SM SKC=



000
FTUS45 KVEF 272320
TAFEED
TAF
KEED 272320Z 2800/2824 20012KT P6SM SKC
     FM280300 24007KT P6SM SKC
     FM281000 VRB05KT P6SM SKC
     FM282000 18009KT P6SM SKC=



000
FTUS45 KVEF 272320
TAFVGT
TAF
KVGT 272320Z 2800/2824 20007KT P6SM SKC
     FM280600 32006KT P6SM SKC
     FM281800 07007KT P6SM SKC=



000
FTUS45 KVEF 272320
TAFDAG
TAF
KDAG 272320Z 2800/2824 25010KT P6SM SKC
     FM282000 06007KT P6SM SKC=



000
FTUS45 KVEF 272320
TAFBIH
TAF
KBIH 272320Z 2800/2824 30009KT P6SM SKC
     FM280400 33007KT P6SM SKC
     FM281900 17010KT P6SM SKC=



000
FTUS45 KVEF 272059 AAA
TAFLAS
TAF AMD
KLAS 272059Z 2721/2818 19010KT P6SM SKC
     FM281500 VRB05KT P6SM SKC=



000
FTUS45 KVEF 272059 AAA
TAFLAS
TAF AMD
KLAS 272059Z 2721/2818 19010KT P6SM SKC
     FM281500 VRB05KT P6SM SKC=



000
FTUS45 KVEF 272059 AAA
TAFLAS
TAF AMD
KLAS 272059Z 2721/2818 19010KT P6SM SKC
     FM281500 VRB05KT P6SM SKC=



000
FTUS45 KVEF 272059 AAA
TAFDAG
TAF AMD
KDAG 272059Z 2721/2818 30010KT P6SM SKC
     FM280300 25010KT P6SM SKC=



000
FTUS45 KVEF 272059 AAA
TAFLAS
TAF AMD
KLAS 272059Z 2721/2818 19010KT P6SM SKC
     FM281500 VRB05KT P6SM SKC=



000
FTUS45 KVEF 272059 AAA
TAFDAG
TAF AMD
KDAG 272059Z 2721/2818 30010KT P6SM SKC
     FM280300 25010KT P6SM SKC=



    US Dept of Commerce
    National Oceanic and Atmospheric Administration
    National Weather Service
    1325 East West Highway
    Silver Spring, MD 20910
    Page Author: NWS Internet Services Team
Disclaimer
Information Quality
Credits
Glossary
Privacy Policy
Freedom of Information Act (FOIA)
About Us
Career Opportunities